sensor_id;sensor_type;location;lat;lon;timestamp;P1;durP1;ratioP1;P2;durP2;ratioP2
15500;SDS011;7852;52.228;5.990;2022-08-11T00:02:40;3.8;;;2.9;;
15500;SDS011;7852;52.228;5.990;2022-08-11T00:02:40;4.1;;;2.6;;
15500;SDS011;7852;52.228;5.990;2022-08-11T00:02:47;4.3;;;2.8;;
15500;SDS011;7852;52.228;5.990;2022-08-11T00:03:11;4.8;;;2.9;;
15500;SDS011;7852;52.228;5.990;2022-08-11T00:04:10;3.7;;;2.8;;
15500;SDS011;7852;52.228;5.990;2022-08-11T00:05:13;4.6;;;3;;
15500;SDS011;7852;52.228;5.990;2022-08-11T00:06:10;3.6;;;2.5;;
15500;SDS011;7852;52.228;5.990;2022-08-11T00:07:10;3.1;;;2.7;;
15500;SDS011;7852;52.228;5.990;2022-08-11T00:08:10;4;;;2.7;;
15500;SDS011;7852;52.228;5.990;2022-08-11T00:09:11;5.6;;;3.1;;
15500;SDS011;7852;52.228;5.990;2022-08-11T00:10:11;4;;;3;;
15500;SDS011;7852;52.228;5.990;2022-08-11T00:11:10;4.4;;;3;;
15500;SDS011;7852;52.228;5.990;2022-08-11T00:12:11;5.2;;;3;;
15500;SDS011;7852;52.228;5.990;2022-08-11T00:13:10;4.6;;;3.2;;
15500;SDS011;7852;52.228;5.990;2022-08-11T00:15:10;3.7;;;2.8;;
15500;SDS011;7852;52.228;5.990;2022-08-11T00:16:11;3.9;;;2.9;;
15500;SDS011;7852;52.228;5.990;2022-08-11T00:17:10;3.6;;;3;;
15500;SDS011;7852;52.228;5.990;2022-08-11T00:18:10;5.8;;;3.2;;
15500;SDS011;7852;52.228;5.990;2022-08-11T00:19:10;3.7;;;2.9;;
15500;SDS011;7852;52.228;5.990;2022-08-11T00:20:11;4;;;3;;
15500;SDS011;7852;52.228;5.990;2022-08-11T00:21:10;3.4;;;3.1;;
15500;SDS011;7852;52.228;5.990;2022-08-11T00:22:10;4.3;;;3.4;;
15500;SDS011;7852;52.228;5.990;2022-08-11T00:23:10;4.7;;;3.1;;
15500;SDS011;7852;52.228;5.990;2022-08-11T00:24:10;4.7;;;3.3;;
15500;SDS011;7852;52.228;5.990;2022-08-11T00:26:10;4.8;;;3.1;;
15500;SDS011;7852;52.228;5.990;2022-08-11T00:27:10;4.2;;;3.3;;
15500;SDS011;7852;52.228;5.990;2022-08-11T00:28:26;5.1;;;3.2;;
15500;SDS011;7852;52.228;5.990;2022-08-11T00:29:10;4.4;;;3.1;;
15500;SDS011;7852;52.228;5.990;2022-08-11T00:30:10;4.5;;;3.4;;
15500;SDS011;7852;52.228;5.990;2022-08-11T00:31:10;4.2;;;3.3;;
15500;SDS011;7852;52.228;5.990;2022-08-11T00:32:11;4.9;;;3.1;;
15500;SDS011;7852;52.228;5.990;2022-08-11T00:33:10;4.7;;;3.5;;
15500;SDS011;7852;52.228;5.990;2022-08-11T00:34:10;4.3;;;3.2;;
15500;SDS011;7852;52.228;5.990;2022-08-11T00:35:10;3.8;;;3.3;;
15500;SDS011;7852;52.228;5.990;2022-08-11T00:36:10;3.9;;;2.9;;
15500;SDS011;7852;52.228;5.990;2022-08-11T00:37:11;8.3;;;3.6;;
15500;SDS011;7852;52.228;5.990;2022-08-11T00:38:10;4.7;;;3.2;;
15500;SDS011;7852;52.228;5.990;2022-08-11T00:39:10;5.8;;;3.3;;
15500;SDS011;7852;52.228;5.990;2022-08-11T00:40:14;5.8;;;3.2;;
15500;SDS011;7852;52.228;5.990;2022-08-11T00:41:14;3.9;;;3.2;;
15500;SDS011;7852;52.228;5.990;2022-08-11T00:42:22;5.3;;;3.2;;
15500;SDS011;7852;52.228;5.990;2022-08-11T00:43:14;3.6;;;3.2;;
15500;SDS011;7852;52.228;5.990;2022-08-11T00:44:14;4.5;;;3.5;;
15500;SDS011;7852;52.228;5.990;2022-08-11T00:45:11;5.8;;;3.1;;
15500;SDS011;7852;52.228;5.990;2022-08-11T00:46:11;7;;;3.5;;
15500;SDS011;7852;52.228;5.990;2022-08-11T00:47:13;3.9;;;3.1;;
15500;SDS011;7852;52.228;5.990;2022-08-11T00:48:13;4;;;3.3;;
15500;SDS011;7852;52.228;5.990;2022-08-11T00:49:12;4.4;;;3.4;;
15500;SDS011;7852;52.228;5.990;2022-08-11T00:50:13;5.6;;;3.4;;
15500;SDS011;7852;52.228;5.990;2022-08-11T00:51:12;6.9;;;3.4;;
15500;SDS011;7852;52.228;5.990;2022-08-11T00:52:13;5;;;3.3;;
15500;SDS011;7852;52.228;5.990;2022-08-11T00:53:24;3.4;;;3.1;;
15500;SDS011;7852;52.228;5.990;2022-08-11T00:54:17;4.5;;;3.3;;
15500;SDS011;7852;52.228;5.990;2022-08-11T00:55:25;4;;;3.1;;
15500;SDS011;7852;52.228;5.990;2022-08-11T00:56:14;4.5;;;3.4;;
15500;SDS011;7852;52.228;5.990;2022-08-11T00:57:17;4.4;;;3.4;;
15500;SDS011;7852;52.228;5.990;2022-08-11T00:58:17;4.5;;;3.7;;
15500;SDS011;7852;52.228;5.990;2022-08-11T00:59:15;4.6;;;3.2;;
15500;SDS011;7852;52.228;5.990;2022-08-11T01:00:11;4.7;;;3.3;;
15500;SDS011;7852;52.228;5.990;2022-08-11T01:01:13;4.2;;;3.4;;
15500;SDS011;7852;52.228;5.990;2022-08-11T01:02:13;5.5;;;3.4;;
15500;SDS011;7852;52.228;5.990;2022-08-11T01:03:16;5.6;;;3.5;;
15500;SDS011;7852;52.228;5.990;2022-08-11T01:04:15;4.7;;;3.8;;
15500;SDS011;7852;52.228;5.990;2022-08-11T01:05:18;4.8;;;3.3;;
15500;SDS011;7852;52.228;5.990;2022-08-11T01:06:19;5.2;;;3.1;;
15500;SDS011;7852;52.228;5.990;2022-08-11T01:07:23;3.7;;;3.3;;
15500;SDS011;7852;52.228;5.990;2022-08-11T01:08:22;4.4;;;3.1;;
15500;SDS011;7852;52.228;5.990;2022-08-11T01:09:13;5.1;;;3.5;;
15500;SDS011;7852;52.228;5.990;2022-08-11T01:10:13;3.9;;;3.1;;
15500;SDS011;7852;52.228;5.990;2022-08-11T01:11:16;5.2;;;3.4;;
15500;SDS011;7852;52.228;5.990;2022-08-11T01:12:14;4;;;3.4;;
15500;SDS011;7852;52.228;5.990;2022-08-11T01:13:13;4.9;;;3.2;;
15500;SDS011;7852;52.228;5.990;2022-08-11T01:14:31;5.2;;;3.6;;
15500;SDS011;7852;52.228;5.990;2022-08-11T01:16:11;4.3;;;3.6;;
15500;SDS011;7852;52.228;5.990;2022-08-11T01:18:15;5.3;;;3.5;;
15500;SDS011;7852;52.228;5.990;2022-08-11T01:20:22;6.3;;;4.2;;
15500;SDS011;7852;52.228;5.990;2022-08-11T01:21:16;7;;;3.7;;
15500;SDS011;7852;52.228;5.990;2022-08-11T01:22:16;5.6;;;3.3;;
15500;SDS011;7852;52.228;5.990;2022-08-11T01:26:25;4.2;;;3.6;;
15500;SDS011;7852;52.228;5.990;2022-08-11T01:27:31;5.3;;;3.4;;
15500;SDS011;7852;52.228;5.990;2022-08-11T01:29:17;4.6;;;3.8;;
15500;SDS011;7852;52.228;5.990;2022-08-11T01:30:16;4.8;;;3.2;;
15500;SDS011;7852;52.228;5.990;2022-08-11T01:31:18;4.3;;;3.6;;
15500;SDS011;7852;52.228;5.990;2022-08-11T01:32:20;4.7;;;3.8;;
15500;SDS011;7852;52.228;5.990;2022-08-11T01:34:14;4;;;3.6;;
15500;SDS011;7852;52.228;5.990;2022-08-11T01:35:28;4.1;;;3.7;;
15500;SDS011;7852;52.228;5.990;2022-08-11T01:37:11;4.3;;;3.6;;
15500;SDS011;7852;52.228;5.990;2022-08-11T01:39:17;4.3;;;3.7;;
15500;SDS011;7852;52.228;5.990;2022-08-11T01:40:16;4.2;;;3.8;;
15500;SDS011;7852;52.228;5.990;2022-08-11T01:41:14;5.4;;;3.8;;
15500;SDS011;7852;52.228;5.990;2022-08-11T01:42:18;4.5;;;3.6;;
15500;SDS011;7852;52.228;5.990;2022-08-11T01:43:18;11.4;;;4.2;;
15500;SDS011;7852;52.228;5.990;2022-08-11T01:44:21;6;;;4.5;;
15500;SDS011;7852;52.228;5.990;2022-08-11T01:45:14;4.6;;;4;;
15500;SDS011;7852;52.228;5.990;2022-08-11T01:46:11;4.1;;;3.6;;
15500;SDS011;7852;52.228;5.990;2022-08-11T01:47:14;5.6;;;3.9;;
15500;SDS011;7852;52.228;5.990;2022-08-11T01:48:12;4;;;3.6;;
15500;SDS011;7852;52.228;5.990;2022-08-11T01:49:11;4.2;;;3.8;;
15500;SDS011;7852;52.228;5.990;2022-08-11T01:50:13;6.4;;;3.7;;
15500;SDS011;7852;52.228;5.990;2022-08-11T01:51:14;4.4;;;3.6;;
15500;SDS011;7852;52.228;5.990;2022-08-11T01:52:12;5.5;;;4;;
15500;SDS011;7852;52.228;5.990;2022-08-11T01:53:14;4.8;;;4.2;;
15500;SDS011;7852;52.228;5.990;2022-08-11T01:54:13;4.8;;;4.3;;
15500;SDS011;7852;52.228;5.990;2022-08-11T01:55:11;5.8;;;3.8;;
15500;SDS011;7852;52.228;5.990;2022-08-11T01:56:14;4.2;;;3.8;;
15500;SDS011;7852;52.228;5.990;2022-08-11T01:57:26;3.8;;;3.4;;
15500;SDS011;7852;52.228;5.990;2022-08-11T01:58:12;4;;;3.6;;
15500;SDS011;7852;52.228;5.990;2022-08-11T01:59:13;5.2;;;3.7;;
15500;SDS011;7852;52.228;5.990;2022-08-11T02:00:11;5.2;;;4.1;;
15500;SDS011;7852;52.228;5.990;2022-08-11T02:01:14;8;;;4.5;;
15500;SDS011;7852;52.228;5.990;2022-08-11T02:02:17;5;;;4;;
15500;SDS011;7852;52.228;5.990;2022-08-11T02:03:11;5.3;;;3.9;;
15500;SDS011;7852;52.228;5.990;2022-08-11T02:04:14;5;;;3.9;;
15500;SDS011;7852;52.228;5.990;2022-08-11T02:05:16;5.1;;;4.4;;
15500;SDS011;7852;52.228;5.990;2022-08-11T02:06:12;5.8;;;4.5;;
15500;SDS011;7852;52.228;5.990;2022-08-11T02:07:12;4.9;;;3.9;;
15500;SDS011;7852;52.228;5.990;2022-08-11T02:08:10;5.6;;;4.1;;
15500;SDS011;7852;52.228;5.990;2022-08-11T02:09:12;7.6;;;4.2;;
15500;SDS011;7852;52.228;5.990;2022-08-11T02:10:13;4.2;;;3.8;;
15500;SDS011;7852;52.228;5.990;2022-08-11T02:11:14;5.5;;;3.8;;
15500;SDS011;7852;52.228;5.990;2022-08-11T02:12:13;5.4;;;4.4;;
15500;SDS011;7852;52.228;5.990;2022-08-11T02:13:12;5.1;;;4.1;;
15500;SDS011;7852;52.228;5.990;2022-08-11T02:14:11;5.4;;;4.3;;
15500;SDS011;7852;52.228;5.990;2022-08-11T02:15:13;4.7;;;4.1;;
15500;SDS011;7852;52.228;5.990;2022-08-11T02:16:15;5.6;;;4.3;;
15500;SDS011;7852;52.228;5.990;2022-08-11T02:17:12;4.7;;;4.2;;
15500;SDS011;7852;52.228;5.990;2022-08-11T02:18:12;5;;;4.1;;
15500;SDS011;7852;52.228;5.990;2022-08-11T02:19:11;5.6;;;4.1;;
15500;SDS011;7852;52.228;5.990;2022-08-11T02:20:13;4.3;;;3.8;;
15500;SDS011;7852;52.228;5.990;2022-08-11T02:21:10;6;;;3.9;;
15500;SDS011;7852;52.228;5.990;2022-08-11T02:22:12;4.7;;;4.2;;
15500;SDS011;7852;52.228;5.990;2022-08-11T02:23:16;5.5;;;4.6;;
15500;SDS011;7852;52.228;5.990;2022-08-11T02:24:10;6.5;;;4.8;;
15500;SDS011;7852;52.228;5.990;2022-08-11T02:25:11;5.1;;;4.6;;
15500;SDS011;7852;52.228;5.990;2022-08-11T02:26:13;7;;;4.2;;
15500;SDS011;7852;52.228;5.990;2022-08-11T02:27:13;5.3;;;4.3;;
15500;SDS011;7852;52.228;5.990;2022-08-11T02:28:11;7.8;;;4.5;;
15500;SDS011;7852;52.228;5.990;2022-08-11T02:29:12;4.7;;;4.2;;
15500;SDS011;7852;52.228;5.990;2022-08-11T02:30:11;5.6;;;4.5;;
15500;SDS011;7852;52.228;5.990;2022-08-11T02:31:11;5.9;;;4.5;;
15500;SDS011;7852;52.228;5.990;2022-08-11T02:32:11;5.3;;;4.8;;
15500;SDS011;7852;52.228;5.990;2022-08-11T02:33:12;5.8;;;4.3;;
15500;SDS011;7852;52.228;5.990;2022-08-11T02:34:12;6.2;;;4.4;;
15500;SDS011;7852;52.228;5.990;2022-08-11T02:35:13;6.5;;;5;;
15500;SDS011;7852;52.228;5.990;2022-08-11T02:46:22;6.6;;;4.5;;
15500;SDS011;7852;52.228;5.990;2022-08-11T02:47:12;5.7;;;4.6;;
15500;SDS011;7852;52.228;5.990;2022-08-11T02:48:12;5;;;4.3;;
15500;SDS011;7852;52.228;5.990;2022-08-11T02:49:11;6;;;4.6;;
15500;SDS011;7852;52.228;5.990;2022-08-11T02:50:11;6.6;;;5;;
15500;SDS011;7852;52.228;5.990;2022-08-11T02:51:11;5.5;;;4.7;;
15500;SDS011;7852;52.228;5.990;2022-08-11T02:52:13;5.8;;;4.7;;
15500;SDS011;7852;52.228;5.990;2022-08-11T02:53:11;7.6;;;5.2;;
15500;SDS011;7852;52.228;5.990;2022-08-11T02:54:12;5.7;;;4.6;;
15500;SDS011;7852;52.228;5.990;2022-08-11T02:55:19;6;;;4.6;;
15500;SDS011;7852;52.228;5.990;2022-08-11T02:56:13;6.6;;;5;;
15500;SDS011;7852;52.228;5.990;2022-08-11T02:57:12;7.7;;;5.2;;
15500;SDS011;7852;52.228;5.990;2022-08-11T02:58:10;5.7;;;4.6;;
15500;SDS011;7852;52.228;5.990;2022-08-11T02:59:15;6.1;;;4.5;;
15500;SDS011;7852;52.228;5.990;2022-08-11T03:00:11;5;;;4.5;;
15500;SDS011;7852;52.228;5.990;2022-08-11T03:01:12;6;;;4.7;;
15500;SDS011;7852;52.228;5.990;2022-08-11T03:02:12;6;;;4.8;;
15500;SDS011;7852;52.228;5.990;2022-08-11T03:03:12;4.9;;;4.4;;
15500;SDS011;7852;52.228;5.990;2022-08-11T03:04:11;7.7;;;5.1;;
15500;SDS011;7852;52.228;5.990;2022-08-11T03:05:14;7.2;;;4.7;;
15500;SDS011;7852;52.228;5.990;2022-08-11T03:06:11;5.3;;;4.8;;
15500;SDS011;7852;52.228;5.990;2022-08-11T03:07:13;5.6;;;4.9;;
15500;SDS011;7852;52.228;5.990;2022-08-11T03:08:12;5.8;;;5.2;;
15500;SDS011;7852;52.228;5.990;2022-08-11T03:09:12;7;;;5.1;;
15500;SDS011;7852;52.228;5.990;2022-08-11T03:10:12;8.2;;;5.3;;
15500;SDS011;7852;52.228;5.990;2022-08-11T03:11:10;6.7;;;5.4;;
15500;SDS011;7852;52.228;5.990;2022-08-11T03:12:10;7.2;;;4.9;;
15500;SDS011;7852;52.228;5.990;2022-08-11T03:13:13;6.8;;;5.4;;
15500;SDS011;7852;52.228;5.990;2022-08-11T03:14:12;6.8;;;5.3;;
15500;SDS011;7852;52.228;5.990;2022-08-11T03:15:10;7.8;;;5.9;;
15500;SDS011;7852;52.228;5.990;2022-08-11T03:16:12;7.7;;;5.4;;
15500;SDS011;7852;52.228;5.990;2022-08-11T03:17:15;5.6;;;5;;
15500;SDS011;7852;52.228;5.990;2022-08-11T03:18:13;7.4;;;5.1;;
15500;SDS011;7852;52.228;5.990;2022-08-11T03:19:10;7.5;;;5.8;;
15500;SDS011;7852;52.228;5.990;2022-08-11T03:20:14;7.1;;;5.5;;
15500;SDS011;7852;52.228;5.990;2022-08-11T03:21:11;7;;;5.4;;
15500;SDS011;7852;52.228;5.990;2022-08-11T03:22:11;6;;;4.9;;
15500;SDS011;7852;52.228;5.990;2022-08-11T03:23:13;6.6;;;5.2;;
15500;SDS011;7852;52.228;5.990;2022-08-11T03:24:13;5.9;;;5.1;;
15500;SDS011;7852;52.228;5.990;2022-08-11T03:25:11;9;;;5.5;;
15500;SDS011;7852;52.228;5.990;2022-08-11T03:26:12;6.8;;;5;;
15500;SDS011;7852;52.228;5.990;2022-08-11T03:27:12;6.6;;;5.1;;
15500;SDS011;7852;52.228;5.990;2022-08-11T03:28:13;7.7;;;5.8;;
15500;SDS011;7852;52.228;5.990;2022-08-11T03:29:12;6.1;;;5.4;;
15500;SDS011;7852;52.228;5.990;2022-08-11T03:30:11;5.6;;;5;;
15500;SDS011;7852;52.228;5.990;2022-08-11T03:31:15;5.7;;;5.1;;
15500;SDS011;7852;52.228;5.990;2022-08-11T03:32:18;7.6;;;5.1;;
15500;SDS011;7852;52.228;5.990;2022-08-11T03:33:14;6.4;;;5;;
15500;SDS011;7852;52.228;5.990;2022-08-11T03:34:13;8.1;;;4.7;;
15500;SDS011;7852;52.228;5.990;2022-08-11T03:35:10;5.1;;;4.1;;
15500;SDS011;7852;52.228;5.990;2022-08-11T03:36:17;5;;;4.4;;
15500;SDS011;7852;52.228;5.990;2022-08-11T03:37:14;5.6;;;4.7;;
15500;SDS011;7852;52.228;5.990;2022-08-11T03:38:11;4.9;;;4.3;;
15500;SDS011;7852;52.228;5.990;2022-08-11T03:39:11;5.1;;;4.6;;
15500;SDS011;7852;52.228;5.990;2022-08-11T03:40:12;5.2;;;4.5;;
15500;SDS011;7852;52.228;5.990;2022-08-11T03:41:13;5.2;;;4.5;;
15500;SDS011;7852;52.228;5.990;2022-08-11T03:42:13;6.1;;;4.8;;
15500;SDS011;7852;52.228;5.990;2022-08-11T03:43:17;5.3;;;4.8;;
15500;SDS011;7852;52.228;5.990;2022-08-11T03:44:17;5.7;;;4.8;;
15500;SDS011;7852;52.228;5.990;2022-08-11T03:45:18;5.8;;;5.2;;
15500;SDS011;7852;52.228;5.990;2022-08-11T03:46:11;5.9;;;5.2;;
15500;SDS011;7852;52.228;5.990;2022-08-11T03:47:17;6.6;;;5.1;;
15500;SDS011;7852;52.228;5.990;2022-08-11T03:48:12;6.9;;;5.2;;
15500;SDS011;7852;52.228;5.990;2022-08-11T03:49:19;5.8;;;4.9;;
15500;SDS011;7852;52.228;5.990;2022-08-11T03:50:15;5.8;;;4.9;;
15500;SDS011;7852;52.228;5.990;2022-08-11T03:51:13;5.3;;;4.8;;
15500;SDS011;7852;52.228;5.990;2022-08-11T03:52:12;6.6;;;4.5;;
15500;SDS011;7852;52.228;5.990;2022-08-11T03:53:12;5.8;;;4.8;;
15500;SDS011;7852;52.228;5.990;2022-08-11T03:54:11;5.3;;;4.4;;
15500;SDS011;7852;52.228;5.990;2022-08-11T03:55:13;4.7;;;4;;
15500;SDS011;7852;52.228;5.990;2022-08-11T03:57:22;4.8;;;4.3;;
15500;SDS011;7852;52.228;5.990;2022-08-11T03:58:24;5.2;;;4.6;;
15500;SDS011;7852;52.228;5.990;2022-08-11T03:59:15;5.6;;;4.4;;
15500;SDS011;7852;52.228;5.990;2022-08-11T04:00:14;6.2;;;4.7;;
15500;SDS011;7852;52.228;5.990;2022-08-11T04:01:19;5.1;;;4.6;;
15500;SDS011;7852;52.228;5.990;2022-08-11T04:02:16;5.4;;;4.8;;
15500;SDS011;7852;52.228;5.990;2022-08-11T04:05:26;5.1;;;4.6;;
15500;SDS011;7852;52.228;5.990;2022-08-11T04:08:14;5.8;;;4.5;;
15500;SDS011;7852;52.228;5.990;2022-08-11T04:10:18;7.3;;;4.6;;
15500;SDS011;7852;52.228;5.990;2022-08-11T04:10:24;9.6;;;5.4;;
15500;SDS011;7852;52.228;5.990;2022-08-11T04:11:15;6;;;5.2;;
15500;SDS011;7852;52.228;5.990;2022-08-11T04:12:13;8.3;;;4.8;;
15500;SDS011;7852;52.228;5.990;2022-08-11T04:13:24;5.1;;;4.6;;
15500;SDS011;7852;52.228;5.990;2022-08-11T04:14:12;6.3;;;4.9;;
15500;SDS011;7852;52.228;5.990;2022-08-11T04:15:13;5.7;;;4.8;;
15500;SDS011;7852;52.228;5.990;2022-08-11T04:16:14;5.8;;;5;;
15500;SDS011;7852;52.228;5.990;2022-08-11T04:17:26;6.6;;;4.9;;
15500;SDS011;7852;52.228;5.990;2022-08-11T04:18:18;5.7;;;4.4;;
15500;SDS011;7852;52.228;5.990;2022-08-11T04:19:29;6.4;;;4.8;;
15500;SDS011;7852;52.228;5.990;2022-08-11T04:20:17;6.6;;;4.7;;
15500;SDS011;7852;52.228;5.990;2022-08-11T04:21:14;4.9;;;4.4;;
15500;SDS011;7852;52.228;5.990;2022-08-11T04:22:15;5.2;;;4.7;;
15500;SDS011;7852;52.228;5.990;2022-08-11T04:23:13;7.3;;;5.1;;
15500;SDS011;7852;52.228;5.990;2022-08-11T04:24:17;5.7;;;4.7;;
15500;SDS011;7852;52.228;5.990;2022-08-11T04:25:20;6;;;4.2;;
15500;SDS011;7852;52.228;5.990;2022-08-11T04:26:16;4.8;;;4.2;;
15500;SDS011;7852;52.228;5.990;2022-08-11T04:27:19;5.2;;;4.7;;
15500;SDS011;7852;52.228;5.990;2022-08-11T04:28:15;4.9;;;4.4;;
15500;SDS011;7852;52.228;5.990;2022-08-11T04:29:13;5.2;;;4.4;;
15500;SDS011;7852;52.228;5.990;2022-08-11T04:30:10;6;;;4.3;;
15500;SDS011;7852;52.228;5.990;2022-08-11T04:31:18;4.7;;;4.3;;
15500;SDS011;7852;52.228;5.990;2022-08-11T04:32:17;5.8;;;5.1;;
15500;SDS011;7852;52.228;5.990;2022-08-11T04:33:19;6.2;;;4.9;;
15500;SDS011;7852;52.228;5.990;2022-08-11T04:34:19;7.2;;;4.8;;
15500;SDS011;7852;52.228;5.990;2022-08-11T04:35:15;6.5;;;4.9;;
15500;SDS011;7852;52.228;5.990;2022-08-11T04:36:20;5.7;;;5.1;;
15500;SDS011;7852;52.228;5.990;2022-08-11T04:37:17;6.8;;;5.1;;
15500;SDS011;7852;52.228;5.990;2022-08-11T04:39:13;6.8;;;5.2;;
15500;SDS011;7852;52.228;5.990;2022-08-11T04:40:17;5.2;;;4.7;;
15500;SDS011;7852;52.228;5.990;2022-08-11T04:41:19;6.1;;;4.7;;
15500;SDS011;7852;52.228;5.990;2022-08-11T04:42:12;6.4;;;4.9;;
15500;SDS011;7852;52.228;5.990;2022-08-11T04:43:23;5.6;;;4.5;;
15500;SDS011;7852;52.228;5.990;2022-08-11T04:44:17;6.2;;;4.8;;
15500;SDS011;7852;52.228;5.990;2022-08-11T04:45:22;7.4;;;4.9;;
15500;SDS011;7852;52.228;5.990;2022-08-11T04:46:13;7.1;;;4.7;;
15500;SDS011;7852;52.228;5.990;2022-08-11T04:47:13;5.4;;;4.9;;
15500;SDS011;7852;52.228;5.990;2022-08-11T04:48:18;7.7;;;5.1;;
15500;SDS011;7852;52.228;5.990;2022-08-11T04:49:19;6.3;;;5.4;;
15500;SDS011;7852;52.228;5.990;2022-08-11T04:50:16;5.8;;;4.7;;
15500;SDS011;7852;52.228;5.990;2022-08-11T04:51:21;6.6;;;4.8;;
15500;SDS011;7852;52.228;5.990;2022-08-11T04:52:16;5.8;;;4.5;;
15500;SDS011;7852;52.228;5.990;2022-08-11T04:53:18;5.1;;;4.4;;
15500;SDS011;7852;52.228;5.990;2022-08-11T04:54:15;5.6;;;4.5;;
15500;SDS011;7852;52.228;5.990;2022-08-11T04:55:18;6.2;;;5;;
15500;SDS011;7852;52.228;5.990;2022-08-11T04:56:13;5.1;;;4.6;;
15500;SDS011;7852;52.228;5.990;2022-08-11T04:57:13;7.6;;;5;;
15500;SDS011;7852;52.228;5.990;2022-08-11T04:58:12;7;;;4.7;;
15500;SDS011;7852;52.228;5.990;2022-08-11T04:59:14;6.9;;;4.9;;
15500;SDS011;7852;52.228;5.990;2022-08-11T05:00:10;6.7;;;4.7;;
15500;SDS011;7852;52.228;5.990;2022-08-11T05:01:17;5.5;;;4.8;;
15500;SDS011;7852;52.228;5.990;2022-08-11T05:02:33;5.3;;;4.4;;
15500;SDS011;7852;52.228;5.990;2022-08-11T05:03:16;5.2;;;4.3;;
15500;SDS011;7852;52.228;5.990;2022-08-11T05:05:14;4.8;;;4.3;;
15500;SDS011;7852;52.228;5.990;2022-08-11T05:06:21;7.1;;;5.1;;
15500;SDS011;7852;52.228;5.990;2022-08-11T05:07:16;5.4;;;4.8;;
15500;SDS011;7852;52.228;5.990;2022-08-11T05:08:18;6.7;;;5;;
15500;SDS011;7852;52.228;5.990;2022-08-11T05:09:13;6.4;;;5.3;;
15500;SDS011;7852;52.228;5.990;2022-08-11T05:10:14;6.6;;;5;;
15500;SDS011;7852;52.228;5.990;2022-08-11T05:12:18;7.5;;;5.6;;
15500;SDS011;7852;52.228;5.990;2022-08-11T05:13:10;6.4;;;5.6;;
15500;SDS011;7852;52.228;5.990;2022-08-11T05:14:19;6.9;;;5.3;;
15500;SDS011;7852;52.228;5.990;2022-08-11T05:15:11;6.2;;;5.6;;
15500;SDS011;7852;52.228;5.990;2022-08-11T05:16:10;7.5;;;5.8;;
15500;SDS011;7852;52.228;5.990;2022-08-11T05:17:10;7.1;;;5.4;;
15500;SDS011;7852;52.228;5.990;2022-08-11T05:18:12;6.7;;;5.4;;
15500;SDS011;7852;52.228;5.990;2022-08-11T05:19:14;6.7;;;5.9;;
15500;SDS011;7852;52.228;5.990;2022-08-11T05:20:10;7.4;;;5.8;;
15500;SDS011;7852;52.228;5.990;2022-08-11T05:21:10;7.3;;;5.3;;
15500;SDS011;7852;52.228;5.990;2022-08-11T05:22:10;7.6;;;5.5;;
15500;SDS011;7852;52.228;5.990;2022-08-11T05:23:10;6.5;;;5.8;;
15500;SDS011;7852;52.228;5.990;2022-08-11T05:24:12;7.7;;;5.8;;
15500;SDS011;7852;52.228;5.990;2022-08-11T05:25:11;8.4;;;6.5;;
15500;SDS011;7852;52.228;5.990;2022-08-11T05:26:10;6.1;;;5.5;;
15500;SDS011;7852;52.228;5.990;2022-08-11T05:27:11;8.3;;;6.7;;
15500;SDS011;7852;52.228;5.990;2022-08-11T05:28:10;8.4;;;6.7;;
15500;SDS011;7852;52.228;5.990;2022-08-11T05:29:27;7.5;;;6.7;;
15500;SDS011;7852;52.228;5.990;2022-08-11T05:30:10;8.7;;;7.4;;
15500;SDS011;7852;52.228;5.990;2022-08-11T05:31:11;11.1;;;7.7;;
15500;SDS011;7852;52.228;5.990;2022-08-11T05:32:11;8.2;;;7;;
15500;SDS011;7852;52.228;5.990;2022-08-11T05:33:11;9.1;;;7.6;;
15500;SDS011;7852;52.228;5.990;2022-08-11T05:34:10;12.9;;;8.1;;
15500;SDS011;7852;52.228;5.990;2022-08-11T05:35:10;9.1;;;7.7;;
15500;SDS011;7852;52.228;5.990;2022-08-11T05:36:11;8.6;;;7.8;;
15500;SDS011;7852;52.228;5.990;2022-08-11T05:37:11;9;;;7.6;;
15500;SDS011;7852;52.228;5.990;2022-08-11T05:38:11;8;;;7.2;;
15500;SDS011;7852;52.228;5.990;2022-08-11T05:39:11;9.4;;;7.7;;
15500;SDS011;7852;52.228;5.990;2022-08-11T05:40:11;9.3;;;7.8;;
15500;SDS011;7852;52.228;5.990;2022-08-11T05:41:10;11.3;;;7.8;;
15500;SDS011;7852;52.228;5.990;2022-08-11T05:42:10;12.6;;;8.1;;
15500;SDS011;7852;52.228;5.990;2022-08-11T05:43:11;9.3;;;7.7;;
15500;SDS011;7852;52.228;5.990;2022-08-11T05:44:15;9.6;;;8.3;;
15500;SDS011;7852;52.228;5.990;2022-08-11T05:45:11;10.1;;;8.2;;
15500;SDS011;7852;52.228;5.990;2022-08-11T05:46:10;9.6;;;8.6;;
15500;SDS011;7852;52.228;5.990;2022-08-11T05:47:10;10.8;;;8.1;;
15500;SDS011;7852;52.228;5.990;2022-08-11T05:48:10;10;;;8.3;;
15500;SDS011;7852;52.228;5.990;2022-08-11T05:49:10;8.8;;;7.9;;
15500;SDS011;7852;52.228;5.990;2022-08-11T05:50:11;9.8;;;8.5;;
15500;SDS011;7852;52.228;5.990;2022-08-11T05:51:10;10;;;8.1;;
15500;SDS011;7852;52.228;5.990;2022-08-11T05:52:13;9.1;;;8.1;;
15500;SDS011;7852;52.228;5.990;2022-08-11T05:53:11;11.3;;;7.8;;
15500;SDS011;7852;52.228;5.990;2022-08-11T05:54:10;9.1;;;8.2;;
15500;SDS011;7852;52.228;5.990;2022-08-11T05:55:10;12.5;;;8.3;;
15500;SDS011;7852;52.228;5.990;2022-08-11T05:56:10;9.9;;;8.1;;
15500;SDS011;7852;52.228;5.990;2022-08-11T05:57:17;10.6;;;9.1;;
15500;SDS011;7852;52.228;5.990;2022-08-11T05:58:10;10.6;;;8.5;;
15500;SDS011;7852;52.228;5.990;2022-08-11T05:59:11;9.4;;;7.4;;
15500;SDS011;7852;52.228;5.990;2022-08-11T06:00:10;10.6;;;8.3;;
15500;SDS011;7852;52.228;5.990;2022-08-11T06:01:10;10;;;8.5;;
15500;SDS011;7852;52.228;5.990;2022-08-11T06:02:10;13;;;8.5;;
15500;SDS011;7852;52.228;5.990;2022-08-11T06:03:10;13.3;;;8.5;;
15500;SDS011;7852;52.228;5.990;2022-08-11T06:04:14;9.6;;;8;;
15500;SDS011;7852;52.228;5.990;2022-08-11T06:05:10;10;;;8.2;;
15500;SDS011;7852;52.228;5.990;2022-08-11T06:06:10;8.9;;;8;;
15500;SDS011;7852;52.228;5.990;2022-08-11T06:07:10;10.7;;;8.1;;
15500;SDS011;7852;52.228;5.990;2022-08-11T06:08:10;11.2;;;8.4;;
15500;SDS011;7852;52.228;5.990;2022-08-11T06:09:10;9.7;;;8.4;;
15500;SDS011;7852;52.228;5.990;2022-08-11T06:10:11;9.3;;;8.4;;
15500;SDS011;7852;52.228;5.990;2022-08-11T06:11:10;9;;;8.1;;
15500;SDS011;7852;52.228;5.990;2022-08-11T06:12:15;8.9;;;8;;
15500;SDS011;7852;52.228;5.990;2022-08-11T06:13:13;11.1;;;7.9;;
15500;SDS011;7852;52.228;5.990;2022-08-11T06:14:10;11;;;8.1;;
15500;SDS011;7852;52.228;5.990;2022-08-11T06:15:10;8.8;;;7.9;;
15500;SDS011;7852;52.228;5.990;2022-08-11T06:16:10;9.5;;;8.6;;
15500;SDS011;7852;52.228;5.990;2022-08-11T06:17:10;9.7;;;8.5;;
15500;SDS011;7852;52.228;5.990;2022-08-11T06:18:10;9.2;;;7.9;;
15500;SDS011;7852;52.228;5.990;2022-08-11T06:19:10;10;;;7.7;;
15500;SDS011;7852;52.228;5.990;2022-08-11T06:20:10;8.8;;;7.9;;
15500;SDS011;7852;52.228;5.990;2022-08-11T06:21:10;10.2;;;7.7;;
15500;SDS011;7852;52.228;5.990;2022-08-11T06:22:10;9.5;;;8.3;;
15500;SDS011;7852;52.228;5.990;2022-08-11T06:23:15;10.1;;;7.8;;
15500;SDS011;7852;52.228;5.990;2022-08-11T06:24:11;15.1;;;7.8;;
15500;SDS011;7852;52.228;5.990;2022-08-11T06:25:10;10.9;;;8.2;;
15500;SDS011;7852;52.228;5.990;2022-08-11T06:26:10;10.8;;;7.6;;
15500;SDS011;7852;52.228;5.990;2022-08-11T06:27:10;9.6;;;7.7;;
15500;SDS011;7852;52.228;5.990;2022-08-11T06:28:10;9;;;8.1;;
15500;SDS011;7852;52.228;5.990;2022-08-11T06:29:10;10.5;;;7.5;;
15500;SDS011;7852;52.228;5.990;2022-08-11T06:30:10;9.9;;;7.7;;
15500;SDS011;7852;52.228;5.990;2022-08-11T06:31:11;8.9;;;7.3;;
15500;SDS011;7852;52.228;5.990;2022-08-11T06:32:11;11;;;7.7;;
15500;SDS011;7852;52.228;5.990;2022-08-11T06:33:12;8.6;;;7.7;;
15500;SDS011;7852;52.228;5.990;2022-08-11T06:34:11;8.6;;;6.9;;
15500;SDS011;7852;52.228;5.990;2022-08-11T06:35:13;8.9;;;7.4;;
15500;SDS011;7852;52.228;5.990;2022-08-11T06:36:12;8.7;;;7.2;;
15500;SDS011;7852;52.228;5.990;2022-08-11T06:37:15;9.9;;;7.3;;
15500;SDS011;7852;52.228;5.990;2022-08-11T06:38:11;8.5;;;7.5;;
15500;SDS011;7852;52.228;5.990;2022-08-11T06:39:12;8.4;;;7.4;;
15500;SDS011;7852;52.228;5.990;2022-08-11T06:40:12;8.1;;;7.3;;
15500;SDS011;7852;52.228;5.990;2022-08-11T06:41:12;8.2;;;7.3;;
15500;SDS011;7852;52.228;5.990;2022-08-11T06:42:20;7.9;;;7.1;;
15500;SDS011;7852;52.228;5.990;2022-08-11T06:43:14;9.3;;;7.3;;
15500;SDS011;7852;52.228;5.990;2022-08-11T06:44:14;7.9;;;6.7;;
15500;SDS011;7852;52.228;5.990;2022-08-11T06:45:18;8.2;;;6.4;;
15500;SDS011;7852;52.228;5.990;2022-08-11T06:46:10;7.3;;;6.5;;
15500;SDS011;7852;52.228;5.990;2022-08-11T06:47:10;8.5;;;6.6;;
15500;SDS011;7852;52.228;5.990;2022-08-11T06:48:14;9.4;;;6.7;;
15500;SDS011;7852;52.228;5.990;2022-08-11T06:49:11;8.4;;;6.6;;
15500;SDS011;7852;52.228;5.990;2022-08-11T06:50:10;8;;;6.4;;